sensor_id;sensor_type;location;lat;lon;timestamp;pressure;altitude;pressure_sealevel;temperature;humidity
21547;BME280;41275;51.912;4.388;2023-02-12T00:01:39;103841.69;;;15.87;44.12
21547;BME280;41275;51.912;4.388;2023-02-12T00:07:00;103836.31;;;16.02;43.76
21547;BME280;41275;51.912;4.388;2023-02-12T00:12:21;103835.91;;;15.83;42.84
21547;BME280;41275;51.912;4.388;2023-02-12T00:17:42;103844.94;;;15.82;42.99
21547;BME280;41275;51.912;4.388;2023-02-12T00:23:04;103836.56;;;15.85;43.30
21547;BME280;41275;51.912;4.388;2023-02-12T00:28:26;103846.78;;;15.82;43.12
21547;BME280;41275;51.912;4.388;2023-02-12T00:33:47;103849.19;;;15.77;43.14
21547;BME280;41275;51.912;4.388;2023-02-12T00:39:08;103838.78;;;15.82;42.84
21547;BME280;41275;51.912;4.388;2023-02-12T00:44:30;103844.69;;;15.77;42.92
21547;BME280;41275;51.912;4.388;2023-02-12T00:49:51;103836.66;;;15.77;42.30
21547;BME280;41275;51.912;4.388;2023-02-12T00:55:12;103836.47;;;15.79;42.54
21547;BME280;41275;51.912;4.388;2023-02-12T01:00:34;103833.44;;;15.82;41.73
21547;BME280;41275;51.912;4.388;2023-02-12T01:05:55;103833.06;;;15.85;42.03
21547;BME280;41275;51.912;4.388;2023-02-12T01:11:17;103826.25;;;15.82;41.99
21547;BME280;41275;51.912;4.388;2023-02-12T01:16:39;103824.69;;;15.88;41.83
21547;BME280;41275;51.912;4.388;2023-02-12T01:22:00;103832.13;;;15.92;42.05
21547;BME280;41275;51.912;4.388;2023-02-12T01:27:21;103838.16;;;16.01;41.45
21547;BME280;41275;51.912;4.388;2023-02-12T01:32:42;103817.72;;;16.08;40.85
21547;BME280;41275;51.912;4.388;2023-02-12T01:38:04;103830.13;;;16.16;40.28
21547;BME280;41275;51.912;4.388;2023-02-12T01:43:25;103833.59;;;16.16;40.19
21547;BME280;41275;51.912;4.388;2023-02-12T01:48:47;103834.22;;;16.18;40.11
21547;BME280;41275;51.912;4.388;2023-02-12T01:54:10;103828.50;;;16.22;40.83
21547;BME280;41275;51.912;4.388;2023-02-12T01:59:34;103827.47;;;16.23;40.83
21547;BME280;41275;51.912;4.388;2023-02-12T02:05:00;103839.78;;;16.17;41.43
21547;BME280;41275;51.912;4.388;2023-02-12T02:10:22;103842.66;;;16.15;41.38
21547;BME280;41275;51.912;4.388;2023-02-12T02:15:46;103837.31;;;16.15;41.17
21547;BME280;41275;51.912;4.388;2023-02-12T02:27:11;103844.09;;;16.18;41.61
21547;BME280;41275;51.912;4.388;2023-02-12T02:32:45;103841.25;;;16.19;42.15
21547;BME280;41275;51.912;4.388;2023-02-12T02:38:23;103836.44;;;16.15;42.36
21547;BME280;41275;51.912;4.388;2023-02-12T02:43:49;103837.84;;;16.11;42.79
21547;BME280;41275;51.912;4.388;2023-02-12T02:49:20;103833.16;;;16.13;42.37
21547;BME280;41275;51.912;4.388;2023-02-12T02:54:46;103836.19;;;16.10;42.13
21547;BME280;41275;51.912;4.388;2023-02-12T03:00:36;103825.16;;;16.13;42.05
21547;BME280;41275;51.912;4.388;2023-02-12T03:06:06;103816.44;;;16.04;41.51
21547;BME280;41275;51.912;4.388;2023-02-12T03:11:32;103813.38;;;16.07;41.67
21547;BME280;41275;51.912;4.388;2023-02-12T03:16:58;103818.16;;;16.12;42.18
21547;BME280;41275;51.912;4.388;2023-02-12T03:22:27;103819.44;;;16.16;41.92
21547;BME280;41275;51.912;4.388;2023-02-12T03:28:05;103817.94;;;16.13;42.54
21547;BME280;41275;51.912;4.388;2023-02-12T03:39:18;103828.56;;;16.07;42.66
21547;BME280;41275;51.912;4.388;2023-02-12T03:44:55;103812.41;;;15.93;42.75
21547;BME280;41275;51.912;4.388;2023-02-12T03:56:06;103814.53;;;15.83;43.29
21547;BME280;41275;51.912;4.388;2023-02-12T04:01:32;103818.59;;;15.79;43.11
21547;BME280;41275;51.912;4.388;2023-02-12T04:06:54;103817.63;;;15.80;42.93
21547;BME280;41275;51.912;4.388;2023-02-12T04:12:39;103829.56;;;15.84;42.85
21547;BME280;41275;51.912;4.388;2023-02-12T04:23:51;103836.47;;;15.79;43.39
21547;BME280;41275;51.912;4.388;2023-02-12T04:29:42;103853.25;;;15.58;43.15
21547;BME280;41275;51.912;4.388;2023-02-12T04:35:25;103868.38;;;15.65;42.28
21547;BME280;41275;51.912;4.388;2023-02-12T04:40:48;103859.59;;;15.71;41.79
21547;BME280;41275;51.912;4.388;2023-02-12T04:46:10;103859.16;;;15.68;41.81
21547;BME280;41275;51.912;4.388;2023-02-12T04:51:31;103860.25;;;15.74;41.92
21547;BME280;41275;51.912;4.388;2023-02-12T04:56:52;103861.28;;;15.73;41.56
21547;BME280;41275;51.912;4.388;2023-02-12T05:02:13;103861.72;;;15.61;41.59
21547;BME280;41275;51.912;4.388;2023-02-12T05:07:35;103854.19;;;15.65;42.07
21547;BME280;41275;51.912;4.388;2023-02-12T05:12:56;103857.59;;;15.74;41.64
21547;BME280;41275;51.912;4.388;2023-02-12T05:18:17;103852.06;;;15.60;41.87
21547;BME280;41275;51.912;4.388;2023-02-12T05:23:40;103850.78;;;15.56;41.77
21547;BME280;41275;51.912;4.388;2023-02-12T05:29:01;103849.03;;;15.49;41.45
21547;BME280;41275;51.912;4.388;2023-02-12T05:34:23;103853.44;;;15.56;41.94
21547;BME280;41275;51.912;4.388;2023-02-12T05:39:44;103857.75;;;15.57;41.92
21547;BME280;41275;51.912;4.388;2023-02-12T05:45:06;103850.13;;;15.54;41.45
21547;BME280;41275;51.912;4.388;2023-02-12T05:50:27;103855.28;;;15.41;41.57
21547;BME280;41275;51.912;4.388;2023-02-12T05:55:48;103856.28;;;15.40;41.63
21547;BME280;41275;51.912;4.388;2023-02-12T06:01:18;103862.00;;;15.37;41.63
21547;BME280;41275;51.912;4.388;2023-02-12T06:06:39;103859.69;;;15.34;41.84
21547;BME280;41275;51.912;4.388;2023-02-12T06:12:03;103863.28;;;15.41;41.94
21547;BME280;41275;51.912;4.388;2023-02-12T06:17:24;103860.31;;;15.36;41.52
21547;BME280;41275;51.912;4.388;2023-02-12T06:22:45;103861.91;;;15.30;42.18
21547;BME280;41275;51.912;4.388;2023-02-12T06:28:07;103861.53;;;15.33;41.83
21547;BME280;41275;51.912;4.388;2023-02-12T06:33:28;103857.13;;;15.26;41.66
21547;BME280;41275;51.912;4.388;2023-02-12T06:38:50;103858.97;;;15.25;42.10
21547;BME280;41275;51.912;4.388;2023-02-12T06:44:12;103855.81;;;15.36;41.86
21547;BME280;41275;51.912;4.388;2023-02-12T06:49:33;103859.59;;;15.42;41.23
21547;BME280;41275;51.912;4.388;2023-02-12T06:54:54;103860.41;;;15.28;41.69
21547;BME280;41275;51.912;4.388;2023-02-12T07:00:15;103874.34;;;15.38;41.74
21547;BME280;41275;51.912;4.388;2023-02-12T07:05:40;103879.00;;;15.51;41.32
21547;BME280;41275;51.912;4.388;2023-02-12T07:11:02;103886.09;;;15.58;41.45
21547;BME280;41275;51.912;4.388;2023-02-12T07:16:23;103889.22;;;15.62;40.89
21547;BME280;41275;51.912;4.388;2023-02-12T07:21:45;103893.38;;;15.64;40.95
21547;BME280;41275;51.912;4.388;2023-02-12T07:27:06;103897.53;;;15.67;40.83
21547;BME280;41275;51.912;4.388;2023-02-12T07:32:27;103908.41;;;15.65;40.60
21547;BME280;41275;51.912;4.388;2023-02-12T07:37:49;103899.09;;;15.61;41.06
21547;BME280;41275;51.912;4.388;2023-02-12T07:43:10;103915.50;;;15.73;40.72
21547;BME280;41275;51.912;4.388;2023-02-12T07:48:31;103922.56;;;15.81;41.06
21547;BME280;41275;51.912;4.388;2023-02-12T07:53:53;103914.28;;;15.76;40.59
21547;BME280;41275;51.912;4.388;2023-02-12T07:59:16;103917.69;;;15.84;40.42
21547;BME280;41275;51.912;4.388;2023-02-12T08:04:37;103921.25;;;15.91;40.68
21547;BME280;41275;51.912;4.388;2023-02-12T08:09:58;103920.53;;;15.98;40.61
21547;BME280;41275;51.912;4.388;2023-02-12T08:15:20;103930.06;;;16.07;40.08
21547;BME280;41275;51.912;4.388;2023-02-12T08:20:41;103931.56;;;16.09;40.42
21547;BME280;41275;51.912;4.388;2023-02-12T08:26:13;103927.41;;;16.07;40.80
21547;BME280;41275;51.912;4.388;2023-02-12T08:31:37;103932.28;;;16.03;40.32
21547;BME280;41275;51.912;4.388;2023-02-12T08:36:59;103940.97;;;16.05;40.16
21547;BME280;41275;51.912;4.388;2023-02-12T08:42:20;103939.69;;;16.01;39.74
21547;BME280;41275;51.912;4.388;2023-02-12T08:47:42;103938.84;;;16.01;39.78
21547;BME280;41275;51.912;4.388;2023-02-12T08:53:03;103934.59;;;15.91;39.49
21547;BME280;41275;51.912;4.388;2023-02-12T08:58:25;103943.84;;;16.04;39.34
21547;BME280;41275;51.912;4.388;2023-02-12T09:03:47;103949.78;;;16.20;39.16
21547;BME280;41275;51.912;4.388;2023-02-12T09:09:09;103958.38;;;16.16;39.58
21547;BME280;41275;51.912;4.388;2023-02-12T09:14:30;103955.59;;;16.09;39.15
21547;BME280;41275;51.912;4.388;2023-02-12T09:19:53;103965.19;;;16.04;38.98
21547;BME280;41275;51.912;4.388;2023-02-12T09:25:14;103971.72;;;16.01;39.30
21547;BME280;41275;51.912;4.388;2023-02-12T09:30:36;103970.44;;;16.12;39.19
21547;BME280;41275;51.912;4.388;2023-02-12T09:36:06;103971.41;;;16.26;39.21
21547;BME280;41275;51.912;4.388;2023-02-12T09:41:46;103972.31;;;16.33;38.72
21547;BME280;41275;51.912;4.388;2023-02-12T09:47:50;103964.69;;;16.30;38.95
21547;BME280;41275;51.912;4.388;2023-02-12T09:53:16;103970.94;;;16.37;39.06
21547;BME280;41275;51.912;4.388;2023-02-12T09:58:46;103967.69;;;16.41;38.86
21547;BME280;41275;51.912;4.388;2023-02-12T10:04:09;103972.22;;;16.41;38.61
21547;BME280;41275;51.912;4.388;2023-02-12T10:09:47;103963.31;;;16.55;38.17
21547;BME280;41275;51.912;4.388;2023-02-12T10:15:18;103969.50;;;16.56;38.55
21547;BME280;41275;51.912;4.388;2023-02-12T10:26:47;103964.47;;;16.89;38.40
21547;BME280;41275;51.912;4.388;2023-02-12T10:32:30;103967.09;;;17.04;38.38
21547;BME280;41275;51.912;4.388;2023-02-12T10:38:04;103967.97;;;17.11;37.90
21547;BME280;41275;51.912;4.388;2023-02-12T10:43:27;103977.06;;;17.16;37.80
21547;BME280;41275;51.912;4.388;2023-02-12T10:48:52;103969.00;;;17.10;37.34
21547;BME280;41275;51.912;4.388;2023-02-12T10:54:38;103964.41;;;17.04;37.86
21547;BME280;41275;51.912;4.388;2023-02-12T11:00:34;103969.66;;;16.90;37.80
21547;BME280;41275;51.912;4.388;2023-02-12T11:05:56;103975.69;;;16.99;37.72
21547;BME280;41275;51.912;4.388;2023-02-12T11:11:27;103963.28;;;16.91;38.03
21547;BME280;41275;51.912;4.388;2023-02-12T11:16:54;103955.94;;;17.00;38.11
21547;BME280;41275;51.912;4.388;2023-02-12T11:22:15;103957.78;;;17.00;38.06
21547;BME280;41275;51.912;4.388;2023-02-12T11:27:39;103960.09;;;17.03;38.13
21547;BME280;41275;51.912;4.388;2023-02-12T11:33:26;103962.81;;;17.09;38.02
21547;BME280;41275;51.912;4.388;2023-02-12T11:38:53;103952.09;;;17.09;38.02
21547;BME280;41275;51.912;4.388;2023-02-12T11:44:29;103945.25;;;17.00;38.01
21547;BME280;41275;51.912;4.388;2023-02-12T11:55:39;103945.69;;;17.04;38.23
21547;BME280;41275;51.912;4.388;2023-02-12T12:06:24;103939.50;;;17.03;38.04
21547;BME280;41275;51.912;4.388;2023-02-12T12:17:17;103934.91;;;17.18;37.86
21547;BME280;41275;51.912;4.388;2023-02-12T12:23:19;103928.47;;;17.13;37.83
21547;BME280;41275;51.912;4.388;2023-02-12T12:28:53;103940.69;;;16.94;37.63
21547;BME280;41275;51.912;4.388;2023-02-12T12:34:20;103921.81;;;16.81;37.81
21547;BME280;41275;51.912;4.388;2023-02-12T12:51:36;103912.59;;;16.83;38.33
21547;BME280;41275;51.912;4.388;2023-02-12T12:57:36;103901.47;;;16.80;37.62
21547;BME280;41275;51.912;4.388;2023-02-12T13:03:36;103901.91;;;16.83;37.94
21547;BME280;41275;51.912;4.388;2023-02-12T13:15:12;103894.31;;;16.87;37.53
21547;BME280;41275;51.912;4.388;2023-02-12T13:21:11;103879.56;;;16.98;37.81
21547;BME280;41275;51.912;4.388;2023-02-12T13:26:58;103882.16;;;16.84;37.65
21547;BME280;41275;51.912;4.388;2023-02-12T13:32:29;103877.38;;;16.80;37.90
21547;BME280;41275;51.912;4.388;2023-02-12T13:37:53;103874.94;;;16.85;37.74
21547;BME280;41275;51.912;4.388;2023-02-12T13:54:28;103867.88;;;17.05;37.67
21547;BME280;41275;51.912;4.388;2023-02-12T13:59:55;103868.69;;;16.99;37.50
21547;BME280;41275;51.912;4.388;2023-02-12T14:05:25;103855.47;;;16.91;37.87
21547;BME280;41275;51.912;4.388;2023-02-12T14:11:03;103849.28;;;16.90;37.65
21547;BME280;41275;51.912;4.388;2023-02-12T14:21:49;103847.88;;;16.95;37.58
21547;BME280;41275;51.912;4.388;2023-02-12T14:27:28;103842.69;;;16.86;37.53
21547;BME280;41275;51.912;4.388;2023-02-12T14:43:39;103833.63;;;16.66;38.06
21547;BME280;41275;51.912;4.388;2023-02-12T14:49:35;103829.94;;;16.67;38.18
21547;BME280;41275;51.912;4.388;2023-02-12T14:54:59;103820.66;;;16.63;37.98
21547;BME280;41275;51.912;4.388;2023-02-12T15:00:33;103823.66;;;16.53;37.99
21547;BME280;41275;51.912;4.388;2023-02-12T15:06:18;103820.22;;;16.59;38.11
21547;BME280;41275;51.912;4.388;2023-02-12T15:11:47;103819.69;;;16.71;38.13
21547;BME280;41275;51.912;4.388;2023-02-12T15:17:15;103815.00;;;16.51;37.79
21547;BME280;41275;51.912;4.388;2023-02-12T15:22:39;103808.84;;;16.51;37.99
21547;BME280;41275;51.912;4.388;2023-02-12T15:33:27;103811.09;;;16.54;38.06
21547;BME280;41275;51.912;4.388;2023-02-12T15:38:56;103815.19;;;16.50;37.77
21547;BME280;41275;51.912;4.388;2023-02-12T15:44:30;103808.63;;;16.52;38.04
21547;BME280;41275;51.912;4.388;2023-02-12T15:49:58;103812.84;;;16.40;38.12
21547;BME280;41275;51.912;4.388;2023-02-12T15:55:22;103808.53;;;16.39;38.58
21547;BME280;41275;51.912;4.388;2023-02-12T16:00:45;103811.31;;;16.31;38.44
21547;BME280;41275;51.912;4.388;2023-02-12T16:06:11;103806.38;;;16.28;38.52
21547;BME280;41275;51.912;4.388;2023-02-12T16:11:34;103805.72;;;16.26;38.18
21547;BME280;41275;51.912;4.388;2023-02-12T16:16:58;103807.28;;;16.35;38.51
21547;BME280;41275;51.912;4.388;2023-02-12T16:22:23;103809.53;;;16.38;38.55
21547;BME280;41275;51.912;4.388;2023-02-12T16:27:59;103807.81;;;16.30;38.15
21547;BME280;41275;51.912;4.388;2023-02-12T16:39:03;103812.69;;;16.20;38.38
21547;BME280;41275;51.912;4.388;2023-02-12T16:44:27;103808.97;;;16.21;38.60
21547;BME280;41275;51.912;4.388;2023-02-12T16:49:59;103808.34;;;16.19;38.87
21547;BME280;41275;51.912;4.388;2023-02-12T16:55:20;103807.75;;;16.02;39.25
21547;BME280;41275;51.912;4.388;2023-02-12T17:00:42;103802.09;;;15.90;39.56
21547;BME280;41275;51.912;4.388;2023-02-12T17:06:03;103813.44;;;15.92;39.48
21547;BME280;41275;51.912;4.388;2023-02-12T17:11:26;103817.00;;;16.00;39.09
21547;BME280;41275;51.912;4.388;2023-02-12T17:16:48;103811.84;;;15.98;39.16
21547;BME280;41275;51.912;4.388;2023-02-12T17:22:35;103818.41;;;15.95;39.22
21547;BME280;41275;51.912;4.388;2023-02-12T17:27:57;103811.22;;;15.96;39.39
21547;BME280;41275;51.912;4.388;2023-02-12T17:33:18;103816.72;;;15.94;39.24
21547;BME280;41275;51.912;4.388;2023-02-12T17:38:39;103824.47;;;15.89;39.86
21547;BME280;41275;51.912;4.388;2023-02-12T17:44:01;103823.28;;;15.92;39.85
21547;BME280;41275;51.912;4.388;2023-02-12T17:49:22;103837.25;;;15.94;40.08
21547;BME280;41275;51.912;4.388;2023-02-12T17:54:44;103833.44;;;16.03;39.48
21547;BME280;41275;51.912;4.388;2023-02-12T18:00:07;103841.75;;;16.08;39.68
21547;BME280;41275;51.912;4.388;2023-02-12T18:05:29;103846.06;;;16.09;39.91
21547;BME280;41275;51.912;4.388;2023-02-12T18:10:51;103841.09;;;16.06;39.62
21547;BME280;41275;51.912;4.388;2023-02-12T18:16:12;103844.22;;;16.10;39.66
21547;BME280;41275;51.912;4.388;2023-02-12T18:21:34;103837.81;;;16.04;39.77
21547;BME280;41275;51.912;4.388;2023-02-12T18:26:55;103839.06;;;16.08;40.02
21547;BME280;41275;51.912;4.388;2023-02-12T18:32:16;103837.03;;;16.10;40.09
21547;BME280;41275;51.912;4.388;2023-02-12T18:37:37;103837.47;;;16.14;39.45
21547;BME280;41275;51.912;4.388;2023-02-12T18:42:59;103831.06;;;16.08;39.98
21547;BME280;41275;51.912;4.388;2023-02-12T18:48:20;103828.44;;;16.15;39.93
21547;BME280;41275;51.912;4.388;2023-02-12T18:53:42;103826.22;;;16.18;39.86
21547;BME280;41275;51.912;4.388;2023-02-12T18:59:04;103824.50;;;16.11;40.32
21547;BME280;41275;51.912;4.388;2023-02-12T19:04:26;103812.81;;;16.12;39.94
21547;BME280;41275;51.912;4.388;2023-02-12T19:09:47;103824.94;;;16.14;40.10
21547;BME280;41275;51.912;4.388;2023-02-12T19:15:08;103821.44;;;16.14;40.09
21547;BME280;41275;51.912;4.388;2023-02-12T19:20:30;103821.69;;;16.19;39.92
21547;BME280;41275;51.912;4.388;2023-02-12T19:25:52;103816.91;;;16.14;39.81
21547;BME280;41275;51.912;4.388;2023-02-12T19:31:19;103818.16;;;16.12;39.94
21547;BME280;41275;51.912;4.388;2023-02-12T19:36:41;103816.91;;;16.14;39.82
21547;BME280;41275;51.912;4.388;2023-02-12T19:42:03;103804.34;;;16.08;40.02
21547;BME280;41275;51.912;4.388;2023-02-12T19:47:24;103817.00;;;16.00;40.42
21547;BME280;41275;51.912;4.388;2023-02-12T19:52:46;103806.50;;;15.98;40.67
21547;BME280;41275;51.912;4.388;2023-02-12T19:58:08;103802.41;;;16.02;40.35
21547;BME280;41275;51.912;4.388;2023-02-12T20:03:29;103804.16;;;16.10;40.77
21547;BME280;41275;51.912;4.388;2023-02-12T20:08:51;103810.38;;;16.17;40.53
21547;BME280;41275;51.912;4.388;2023-02-12T20:14:13;103814.09;;;16.16;40.47
21547;BME280;41275;51.912;4.388;2023-02-12T20:19:34;103808.34;;;16.19;40.73
21547;BME280;41275;51.912;4.388;2023-02-12T20:24:58;103805.03;;;16.17;40.62
21547;BME280;41275;51.912;4.388;2023-02-12T20:30:19;103793.28;;;16.11;40.86
21547;BME280;41275;51.912;4.388;2023-02-12T20:35:41;103790.84;;;16.16;40.60
21547;BME280;41275;51.912;4.388;2023-02-12T20:41:03;103795.50;;;16.08;40.73
21547;BME280;41275;51.912;4.388;2023-02-12T20:46:25;103803.66;;;16.00;41.15
21547;BME280;41275;51.912;4.388;2023-02-12T20:51:48;103799.50;;;15.97;41.16
21547;BME280;41275;51.912;4.388;2023-02-12T20:57:10;103803.81;;;15.98;40.99
21547;BME280;41275;51.912;4.388;2023-02-12T21:02:31;103806.25;;;15.93;41.08
21547;BME280;41275;51.912;4.388;2023-02-12T21:07:52;103808.84;;;15.86;41.21
21547;BME280;41275;51.912;4.388;2023-02-12T21:13:13;103803.88;;;15.83;41.36
21547;BME280;41275;51.912;4.388;2023-02-12T21:18:35;103805.53;;;15.84;41.43
21547;BME280;41275;51.912;4.388;2023-02-12T21:23:57;103805.00;;;15.74;41.29
21547;BME280;41275;51.912;4.388;2023-02-12T21:29:19;103811.53;;;15.71;41.57
21547;BME280;41275;51.912;4.388;2023-02-12T21:34:41;103805.19;;;15.73;41.11
21547;BME280;41275;51.912;4.388;2023-02-12T21:40:02;103796.91;;;15.67;41.24
21547;BME280;41275;51.912;4.388;2023-02-12T21:45:23;103793.50;;;15.59;41.46
21547;BME280;41275;51.912;4.388;2023-02-12T21:50:45;103800.41;;;15.53;41.65
21547;BME280;41275;51.912;4.388;2023-02-12T21:56:06;103801.88;;;15.56;41.48
21547;BME280;41275;51.912;4.388;2023-02-12T22:01:29;103797.75;;;15.53;42.08
21547;BME280;41275;51.912;4.388;2023-02-12T22:06:52;103796.38;;;15.57;41.65
21547;BME280;41275;51.912;4.388;2023-02-12T22:12:14;103792.47;;;15.60;42.03
21547;BME280;41275;51.912;4.388;2023-02-12T22:17:35;103800.03;;;15.71;41.63
21547;BME280;41275;51.912;4.388;2023-02-12T22:22:57;103780.78;;;15.76;41.45
21547;BME280;41275;51.912;4.388;2023-02-12T22:28:18;103786.75;;;15.78;41.61
21547;BME280;41275;51.912;4.388;2023-02-12T22:33:39;103782.00;;;15.73;41.82
21547;BME280;41275;51.912;4.388;2023-02-12T22:39:00;103775.91;;;15.64;41.69
21547;BME280;41275;51.912;4.388;2023-02-12T22:44:22;103781.78;;;15.60;42.03
21547;BME280;41275;51.912;4.388;2023-02-12T22:49:43;103785.41;;;15.67;42.19
21547;BME280;41275;51.912;4.388;2023-02-12T22:55:04;103783.84;;;15.73;42.16
21547;BME280;41275;51.912;4.388;2023-02-12T23:00:25;103778.88;;;15.69;41.88
21547;BME280;41275;51.912;4.388;2023-02-12T23:05:46;103782.38;;;15.70;42.23
21547;BME280;41275;51.912;4.388;2023-02-12T23:11:09;103785.25;;;15.68;41.99
21547;BME280;41275;51.912;4.388;2023-02-12T23:16:30;103773.16;;;15.58;42.40
21547;BME280;41275;51.912;4.388;2023-02-12T23:21:51;103777.22;;;15.54;42.16
21547;BME280;41275;51.912;4.388;2023-02-12T23:27:13;103768.31;;;15.46;42.65
21547;BME280;41275;51.912;4.388;2023-02-12T23:32:34;103766.66;;;15.45;42.28
21547;BME280;41275;51.912;4.388;2023-02-12T23:37:55;103771.63;;;15.49;42.53
21547;BME280;41275;51.912;4.388;2023-02-12T23:43:16;103762.69;;;15.56;42.17
21547;BME280;41275;51.912;4.388;2023-02-12T23:48:38;103751.59;;;15.59;42.24
21547;BME280;41275;51.912;4.388;2023-02-12T23:53:59;103753.00;;;15.55;42.25
21547;BME280;41275;51.912;4.388;2023-02-12T23:59:20;103754.22;;;15.53;42.12
